Time;durP1;ratioP1;P1;durP2;ratioP2;P2;SDS_P1;SDS_P2;PMS_P1;PMS_P2;Temp;Humidity;BMP_temperature;BMP_pressure;BME280_temperature;BME280_humidity;BME280_pressure;Samples;Min_cycle;Max_cycle;Signal;HPM_P1;HPM_P2
2023/06/21 00:01:03;;;;;;;7.00;2.90;;;;;;;26.85;58.49;99311.47;4935576;29;20034;-74
2023/06/21 00:03:29;;;;;;;7.60;3.25;;;;;;;26.84;58.62;99213.44;4935416;29;20032;-76
2023/06/21 00:05:54;;;;;;;6.93;3.10;;;;;;;26.84;58.90;99234.84;4935591;29;20030;-74
2023/06/21 00:08:21;;;;;;;5.53;2.90;;;;;;;26.82;58.98;99231.44;4935521;29;20097;-72
2023/06/21 00:10:47;;;;;;;6.22;2.95;;;;;;;26.84;58.63;99228.63;4935500;29;20102;-73
2023/06/21 00:13:13;;;;;;;5.05;2.70;;;;;;;26.84;58.88;99169.75;4934869;29;20461;-74
2023/06/21 00:15:38;;;;;;;7.07;2.83;;;;;;;26.84;58.65;99159.03;4935059;29;20024;-75
2023/06/21 00:18:04;;;;;;;4.90;2.70;;;;;;;26.82;58.67;99199.31;4935379;29;20046;-73
2023/06/21 00:20:29;;;;;;;6.50;3.05;;;;;;;26.84;58.59;99201.84;4935036;29;20024;-72
2023/06/21 00:22:55;;;;;;;4.43;2.50;;;;;;;26.82;58.71;99207.34;4933976;29;20237;-74
2023/06/21 00:25:22;;;;;;;4.85;2.85;;;;;;;26.83;58.72;99189.47;4935131;29;20039;-74
2023/06/21 00:27:48;;;;;;;4.60;2.72;;;;;;;26.84;58.83;99193.81;4934899;29;20027;-74
2023/06/21 00:30:13;;;;;;;4.75;2.67;;;;;;;26.80;58.92;99178.06;4934945;29;20413;-75
2023/06/21 00:32:39;;;;;;;4.28;2.45;;;;;;;26.78;59.17;99161.28;4934812;29;20123;-73
2023/06/21 00:35:05;;;;;;;5.35;2.33;;;;;;;26.77;58.76;99151.56;4934749;29;20031;-74
2023/06/21 00:37:31;;;;;;;4.05;2.42;;;;;;;26.77;58.99;99143.53;4935055;29;20078;-74
2023/06/21 00:39:56;;;;;;;5.15;2.63;;;;;;;26.77;59.19;99156.91;4935034;29;20488;-74
2023/06/21 00:42:23;;;;;;;5.43;2.55;;;;;;;26.75;58.88;99166.94;4934799;29;20036;-74
2023/06/21 00:44:48;;;;;;;4.65;2.53;;;;;;;26.74;59.16;99170.59;4934839;29;20107;-72
2023/06/21 00:47:14;;;;;;;5.22;2.13;;;;;;;26.74;59.19;99162.56;4934918;29;20055;-73
2023/06/21 00:49:39;;;;;;;5.97;2.70;;;;;;;26.75;59.09;99176.78;4935059;29;20064;-73
2023/06/21 00:52:05;;;;;;;6.22;2.63;;;;;;;26.74;58.92;99159.03;4934725;29;20123;-74
2023/06/21 00:54:34;;;;;;;4.75;2.70;;;;;;;26.73;59.09;99163.53;4934553;29;20492;-74
2023/06/21 00:57:01;;;;;;;4.80;3.00;;;;;;;26.75;59.01;99176.78;4934445;29;20079;-74
2023/06/21 00:59:27;;;;;;;5.85;2.70;;;;;;;26.74;58.95;99177.75;4934612;29;20059;-75
2023/06/21 01:01:57;;;;;;;4.65;2.83;;;;;;;26.75;59.11;99188.34;4934904;29;20035;-74
2023/06/21 01:04:24;;;;;;;4.90;2.70;;;;;;;26.74;59.10;99188.47;4934733;29;20094;-76
2023/06/21 01:06:54;;;;;;;4.50;2.83;;;;;;;26.73;59.42;99190.28;4934871;29;20032;-74
2023/06/21 01:09:47;;;;;;;4.93;2.42;;;;;;;26.72;59.10;99180.56;4934890;29;20035;-74
2023/06/21 01:12:38;;;;;;;5.13;2.60;;;;;;;26.73;59.42;99168.03;4934231;29;20035;-75
2023/06/21 01:15:08;;;;;;;5.60;2.90;;;;;;;26.70;59.08;99155.78;4934634;29;20071;-75
2023/06/21 01:17:38;;;;;;;5.57;3.00;;;;;;;26.70;58.98;99157.59;4934699;29;20107;-74
2023/06/21 01:20:13;;;;;;;5.43;3.45;;;;;;;26.69;59.18;99154.09;4933438;29;20406;-73
2023/06/21 01:22:59;;;;;;;5.07;3.03;;;;;;;26.69;59.08;99167.47;4934600;29;20024;-74
2023/06/21 01:25:50;;;;;;;5.97;3.20;;;;;;;26.68;59.65;99171.13;4913004;29;20139;-73
2023/06/21 01:28:25;;;;;;;5.78;2.75;;;;;;;26.67;59.53;99180.13;4913325;29;20040;-73
2023/06/21 01:30:53;;;;;;;6.28;3.20;;;;;;;26.69;59.48;99210.28;4912989;29;20179;-74
2023/06/21 01:33:19;;;;;;;5.78;3.22;;;;;;;26.66;59.57;99226.63;4913302;29;20040;-74
2023/06/21 01:35:44;;;;;;;5.95;3.10;;;;;;;26.67;59.60;99223.81;4912972;29;20024;-73
2023/06/21 01:38:10;;;;;;;4.93;3.10;;;;;;;26.65;59.77;99251.69;4913393;29;20028;-73
2023/06/21 01:40:37;;;;;;;4.50;2.92;;;;;;;26.63;59.44;99242.97;4912999;29;20112;-73
2023/06/21 01:43:03;;;;;;;4.70;3.17;;;;;;;26.63;59.82;99249.13;4913199;29;20055;-72
2023/06/21 01:45:28;;;;;;;5.25;3.22;;;;;;;26.64;59.48;99233.94;4913251;29;20033;-75
2023/06/21 01:47:55;;;;;;;5.90;3.50;;;;;;;26.61;59.85;99200.28;4913285;29;20048;-73
2023/06/21 01:50:22;;;;;;;6.18;3.70;;;;;;;26.64;59.29;99183.94;4913075;29;20115;-74
2023/06/21 01:52:48;;;;;;;5.75;3.30;;;;;;;26.63;59.82;99203.66;4913005;29;20032;-74
2023/06/21 01:55:14;;;;;;;8.63;3.28;;;;;;;26.63;59.66;99205.50;4912853;29;20099;-76
2023/06/21 01:57:40;;;;;;;5.32;3.50;;;;;;;26.62;59.73;99193.94;4913119;29;20540;-75
2023/06/21 02:00:16;;;;;;;5.47;3.58;;;;;;;26.64;59.74;99207.19;4913054;29;20036;-75
2023/06/21 02:03:06;;;;;;;5.78;3.50;;;;;;;26.62;59.55;99225.19;4926822;29;20051;-74
2023/06/21 02:05:33;;;;;;;7.18;3.10;;;;;;;26.61;59.69;99223.50;4937791;29;20043;-73
2023/06/21 02:08:00;;;;;;;5.72;3.42;;;;;;;26.61;59.57;99224.34;4937575;29;20023;-76
2023/06/21 02:10:27;;;;;;;6.18;3.42;;;;;;;26.60;60.01;99232.50;4937064;29;20038;-73
2023/06/21 02:12:52;;;;;;;6.07;3.78;;;;;;;26.62;59.47;99225.19;4937324;29;20512;-74
2023/06/21 02:15:19;;;;;;;6.40;4.22;;;;;;;26.62;59.63;99236.75;4937490;29;20078;-75
2023/06/21 02:17:48;;;;;;;5.60;3.60;;;;;;;26.64;59.77;99239.28;4937356;29;20028;-74
2023/06/21 02:20:14;;;;;;;5.57;4.07;;;;;;;26.61;59.47;99239.56;4937298;29;20087;-74
2023/06/21 02:22:40;;;;;;;5.22;3.50;;;;;;;26.62;60.12;99241.25;4937483;29;20428;-74
2023/06/21 02:25:07;;;;;;;6.55;4.20;;;;;;;26.63;59.52;99237.59;4936828;29;20037;-74
2023/06/21 02:27:32;;;;;;;6.20;4.07;;;;;;;26.63;59.69;99242.97;4937281;29;20032;-73
2023/06/21 02:29:57;;;;;;;6.55;3.83;;;;;;;26.62;59.64;99239.44;4935909;29;20044;-74
2023/06/21 02:32:23;;;;;;;7.25;4.00;;;;;;;26.62;59.86;99244.78;4920042;29;20044;-75
2023/06/21 02:34:48;;;;;;;6.13;4.20;;;;;;;26.61;60.08;99244.91;4937007;29;20036;-74
2023/06/21 02:37:13;;;;;;;6.55;4.18;;;;;;;26.60;59.56;99253.91;4937097;29;20039;-76
2023/06/21 02:39:39;;;;;;;7.95;4.38;;;;;;;26.59;59.70;99246.88;4935541;29;20027;-74
2023/06/21 02:42:04;;;;;;;8.93;5.15;;;;;;;26.59;59.81;99244.22;4937118;29;20106;-73
2023/06/21 02:44:30;;;;;;;7.53;5.20;;;;;;;26.59;59.90;99241.53;4936917;29;20054;-76
2023/06/21 02:46:56;;;;;;;5.93;4.68;;;;;;;26.60;59.45;99243.22;4936879;29;20484;-77
2023/06/21 02:49:22;;;;;;;7.03;5.55;;;;;;;26.60;59.56;99243.22;4936909;29;20058;-75
2023/06/21 02:51:50;;;;;;;8.68;5.70;;;;;;;26.60;59.47;99248.56;4936690;29;20114;-74
2023/06/21 02:54:16;;;;;;;7.03;5.70;;;;;;;26.59;59.66;99246.88;4936455;29;20061;-74
2023/06/21 02:56:45;;;;;;;8.43;6.40;;;;;;;26.57;60.04;99255.03;4936848;29;20056;-75
2023/06/21 02:59:12;;;;;;;10.05;6.25;;;;;;;26.59;59.47;99257.59;4936740;29;20035;-75
2023/06/21 03:01:37;;;;;;;8.63;6.43;;;;;;;26.54;59.62;99248.13;4936666;29;20480;-76
2023/06/21 03:04:03;;;;;;;8.48;6.35;;;;;;;26.54;59.37;99250.81;4936753;29;20147;-74
2023/06/21 03:06:33;;;;;;;9.38;6.63;;;;;;;26.54;59.66;99250.81;4936555;29;20261;-74
2023/06/21 03:08:59;;;;;;;8.43;6.47;;;;;;;26.56;59.68;99263.19;4936292;29;20038;-74
2023/06/21 03:11:25;;;;;;;7.95;6.57;;;;;;;26.56;59.93;99255.16;4936563;29;20392;-73
2023/06/21 03:13:50;;;;;;;8.63;5.95;;;;;;;26.54;59.88;99249.97;4935148;29;20034;-74
2023/06/21 03:16:15;;;;;;;9.48;5.97;;;;;;;26.53;59.98;99257.13;4936522;29;20036;-74
2023/06/21 03:18:41;;;;;;;7.50;6.05;;;;;;;26.52;59.55;99247.41;4936585;29;20473;-73
2023/06/21 03:21:06;;;;;;;8.82;5.90;;;;;;;26.51;59.88;99248.41;4936377;29;20032;-74
2023/06/21 03:23:32;;;;;;;9.10;6.20;;;;;;;26.51;59.71;99252.91;4935917;29;20487;-77
2023/06/21 03:25:57;;;;;;;7.25;5.40;;;;;;;26.51;59.98;99243.06;4936336;29;20514;-76
2023/06/21 03:28:23;;;;;;;8.73;5.93;;;;;;;26.50;59.70;99233.34;4936272;29;20031;-75
2023/06/21 03:30:48;;;;;;;10.30;5.90;;;;;;;26.50;59.71;99233.34;4935922;29;20051;-74
2023/06/21 03:33:14;;;;;;;8.50;5.43;;;;;;;26.51;59.67;99242.19;4936149;29;20036;-74
2023/06/21 03:35:39;;;;;;;7.47;5.60;;;;;;;26.51;59.56;99245.72;4935971;29;20488;-75
2023/06/21 03:38:07;;;;;;;7.38;5.53;;;;;;;26.52;59.65;99265.28;4935603;29;20035;-74
2023/06/21 03:40:32;;;;;;;7.82;5.55;;;;;;;26.52;59.58;99263.47;4935689;29;20556;-74
2023/06/21 03:42:58;;;;;;;7.55;5.30;;;;;;;26.50;59.95;99257.44;4935920;29;20059;-74
2023/06/21 03:45:23;;;;;;;9.27;5.30;;;;;;;26.50;59.77;99270.81;4934540;29;20404;-74
2023/06/21 03:47:48;;;;;;;6.63;4.93;;;;;;;26.51;59.78;99276.97;4935759;29;20050;-74
2023/06/21 03:50:14;;;;;;;8.95;5.70;;;;;;;26.50;59.52;99270.81;4935888;29;20095;-73
2023/06/21 03:52:40;;;;;;;7.35;5.20;;;;;;;26.47;59.82;99273.72;4940248;29;20040;-74
2023/06/21 03:55:06;;;;;;;6.70;4.97;;;;;;;26.48;59.48;99272.75;4916738;29;20039;-74
2023/06/21 03:57:32;;;;;;;11.25;5.68;;;;;;;26.48;59.83;99278.09;4916594;29;20083;-74
2023/06/21 03:59:57;;;;;;;8.30;4.97;;;;;;;26.45;59.49;99283.72;4916735;29;20056;-75
2023/06/21 04:02:24;;;;;;;7.32;5.40;;;;;;;26.44;59.67;99276.66;4916671;29;20028;-74
2023/06/21 04:04:49;;;;;;;6.38;4.68;;;;;;;26.45;59.56;99286.41;4916094;29;20040;-75
2023/06/21 04:07:18;;;;;;;6.97;4.65;;;;;;;26.47;59.39;99286.25;4916412;29;20020;-75
2023/06/21 04:09:45;;;;;;;6.35;4.28;;;;;;;26.46;59.49;99274.72;4916592;29;20036;-73
2023/06/21 04:12:10;;;;;;;6.00;3.92;;;;;;;26.46;59.37;99274.72;4916149;29;20030;-74
2023/06/21 04:14:36;;;;;;;7.97;4.50;;;;;;;26.45;59.49;99272.16;4916244;29;20036;-74
2023/06/21 04:17:01;;;;;;;7.35;4.55;;;;;;;26.45;59.81;99273.03;4916428;29;20065;-74
2023/06/21 04:19:27;;;;;;;6.80;4.18;;;;;;;26.44;59.55;99273.97;4916176;29;20050;-74
2023/06/21 04:21:53;;;;;;;6.28;4.45;;;;;;;26.45;59.89;99273.03;4916562;29;20099;-76
2023/06/21 04:24:19;;;;;;;7.22;4.28;;;;;;;26.45;59.72;99275.69;4916229;29;20521;-74
2023/06/21 04:26:44;;;;;;;5.97;4.45;;;;;;;26.45;59.31;99267.69;4915934;29;20032;-74
2023/06/21 04:29:09;;;;;;;8.73;4.63;;;;;;;26.44;59.67;99276.66;4916717;29;20046;-75
2023/06/21 04:31:37;;;;;;;5.22;3.90;;;;;;;26.43;59.64;99280.31;4934974;29;20027;-75
2023/06/21 04:34:04;;;;;;;6.35;4.03;;;;;;;26.41;59.77;99282.28;4934673;29;20031;-74
2023/06/21 04:36:30;;;;;;;6.20;4.30;;;;;;;26.45;59.56;99289.09;4934978;29;20095;-75
2023/06/21 04:38:55;;;;;;;7.10;4.00;;;;;;;26.43;59.39;99291.03;4935195;29;20028;-75
2023/06/21 04:41:21;;;;;;;6.40;3.92;;;;;;;26.40;59.72;99291.31;4935036;29;20027;-75
2023/06/21 04:43:47;;;;;;;6.20;4.10;;;;;;;26.41;59.81;99290.31;4934867;29;20040;-75
2023/06/21 04:46:13;;;;;;;5.20;3.72;;;;;;;26.42;59.30;99294.69;4934921;29;20046;-75
2023/06/21 04:48:38;;;;;;;5.70;4.32;;;;;;;26.43;59.62;99290.19;4934684;29;20052;-75
2023/06/21 04:51:04;;;;;;;6.40;4.22;;;;;;;26.42;59.48;99289.34;4934847;29;20122;-76
2023/06/21 04:53:30;;;;;;;5.82;3.97;;;;;;;26.38;59.59;99271.84;4934854;29;20039;-74
2023/06/21 04:55:57;;;;;;;5.95;3.90;;;;;;;26.39;60.04;99289.63;4935004;29;20035;-75
2023/06/21 04:58:23;;;;;;;5.00;3.83;;;;;;;26.38;59.67;99280.72;4934982;29;20036;-75
2023/06/21 05:00:48;;;;;;;7.35;4.28;;;;;;;26.39;60.02;99273.56;4934668;29;20424;-73
2023/06/21 05:03:14;;;;;;;7.25;4.57;;;;;;;26.39;59.80;99273.56;4934500;29;20031;-74
2023/06/21 05:05:40;;;;;;;6.75;4.25;;;;;;;26.38;59.96;99267.34;4934466;29;20392;-75
2023/06/21 05:08:06;;;;;;;7.05;4.22;;;;;;;26.38;59.75;99279.88;4934800;29;20436;-74
2023/06/21 05:10:31;;;;;;;7.07;3.95;;;;;;;26.37;59.80;99286.22;4934800;29;20031;-74
2023/06/21 05:12:57;;;;;;;6.32;4.00;;;;;;;26.36;60.01;99279.16;4934625;29;20035;-76
2023/06/21 05:15:22;;;;;;;7.72;4.25;;;;;;;26.35;59.79;99275.63;4934765;29;20040;-74
2023/06/21 05:17:48;;;;;;;5.97;4.03;;;;;;;26.36;59.99;99263.13;4934148;29;20032;-75
2023/06/21 05:20:13;;;;;;;6.05;4.20;;;;;;;26.32;59.76;99267.03;4934772;29;20047;-74
2023/06/21 05:22:41;;;;;;;5.57;3.88;;;;;;;26.31;59.86;99257.31;4934518;29;20046;-74
2023/06/21 05:25:07;;;;;;;5.60;4.00;;;;;;;26.30;59.80;99264.50;4934699;29;20456;-73
2023/06/21 05:27:33;;;;;;;6.75;4.10;;;;;;;26.30;60.01;99277.03;4934597;29;20055;-74
2023/06/21 05:29:58;;;;;;;5.78;3.80;;;;;;;26.29;59.65;99284.19;4934466;29;20119;-75
2023/06/21 05:32:25;;;;;;;8.10;3.70;;;;;;;26.31;59.83;99289.41;4934037;29;20031;-75
2023/06/21 05:34:53;;;;;;;6.90;3.97;;;;;;;26.26;59.58;99284.47;4934326;29;20048;-74
2023/06/21 05:37:18;;;;;;;6.60;3.70;;;;;;;26.27;59.98;99287.03;4935173;29;20036;-74
2023/06/21 05:39:44;;;;;;;6.47;4.00;;;;;;;26.27;59.55;99289.69;4937993;29;20046;-74
2023/06/21 05:42:10;;;;;;;6.28;3.55;;;;;;;26.28;59.66;99293.19;4937728;29;20028;-75
2023/06/21 05:44:36;;;;;;;6.60;3.97;;;;;;;26.26;60.14;99285.31;4938027;29;20039;-74
2023/06/21 05:47:01;;;;;;;8.32;4.35;;;;;;;26.25;60.25;99288.97;4937040;29;20028;-75
2023/06/21 05:49:27;;;;;;;9.00;5.85;;;;;;;26.24;60.15;99289.94;4937674;29;20028;-75
2023/06/21 05:51:52;;;;;;;10.75;7.85;;;;;;;26.25;59.83;99313.03;4937825;29;20019;-74
2023/06/21 05:54:17;;;;;;;22.00;15.38;;;;;;;26.23;60.31;99306.97;4937693;29;20027;-74
2023/06/21 05:56:43;;;;;;;31.55;22.48;;;;;;;26.25;60.01;99306.84;4937863;29;20086;-72
2023/06/21 05:59:08;;;;;;;39.63;30.48;;;;;;;26.25;60.33;99315.72;4936429;29;20032;-73
2023/06/21 06:01:34;;;;;;;52.78;40.60;;;;;;;26.26;60.14;99320.06;4937347;29;20019;-73
2023/06/21 06:03:59;;;;;;;62.55;46.10;;;;;;;26.27;60.00;99327.16;4937733;29;20393;-74
2023/06/21 06:06:34;;;;;;;65.53;49.80;;;;;;;26.25;60.34;99326.41;4937798;29;20024;-73
2023/06/21 06:09:00;;;;;;;64.63;48.97;;;;;;;26.28;59.94;99325.28;4937567;29;20031;-74
2023/06/21 06:11:25;;;;;;;61.30;45.30;;;;;;;26.27;60.35;99329.81;4937626;29;20028;-74
2023/06/21 06:13:50;;;;;;;60.38;44.30;;;;;;;26.30;60.41;99322.50;4937163;29;20130;-75
2023/06/21 06:16:16;;;;;;;65.90;46.38;;;;;;;26.30;60.09;99311.81;4937172;29;20038;-74
2023/06/21 06:18:41;;;;;;;94.63;66.85;;;;;;;26.29;60.12;99302.91;4937375;29;20032;-75
2023/06/21 06:21:07;;;;;;;61.95;44.70;;;;;;;26.30;60.38;99299.28;4936217;29;20100;-74
2023/06/21 06:23:32;;;;;;;72.55;49.42;;;;;;;26.30;60.25;99301.09;4934736;29;20110;-73
2023/06/21 06:25:58;;;;;;;55.60;38.88;;;;;;;26.32;60.42;99304.47;4944688;29;20510;-73
2023/06/21 06:28:23;;;;;;;47.50;32.50;;;;;;;26.31;60.17;99298.31;4947182;29;20026;-73
2023/06/21 06:30:49;;;;;;;44.05;30.80;;;;;;;26.33;60.34;99303.53;4936454;29;20506;-72
2023/06/21 06:33:14;;;;;;;46.45;30.02;;;;;;;26.34;60.18;99307.88;4943661;29;20101;-75
2023/06/21 06:35:39;;;;;;;38.47;26.70;;;;;;;26.32;60.46;99310.69;4946730;29;20030;-73
2023/06/21 06:38:05;;;;;;;40.00;26.75;;;;;;;26.34;60.04;99313.25;4943991;29;20027;-72
2023/06/21 06:40:30;;;;;;;36.78;26.25;;;;;;;26.33;60.71;99311.56;4944842;29;20090;-73
2023/06/21 06:42:57;;;;;;;39.47;26.10;;;;;;;26.33;60.71;99301.69;4943962;29;20704;-73
2023/06/21 06:45:22;;;;;;;36.67;23.05;;;;;;;26.35;60.44;99304.22;4941445;29;20395;-73
2023/06/21 06:47:48;;;;;;;39.30;23.15;;;;;;;26.36;60.64;99295.22;4948217;28;20031;-74
2023/06/21 06:50:13;;;;;;;31.38;19.48;;;;;;;26.36;60.64;99304.09;4949179;29;20023;-72
2023/06/21 06:52:39;;;;;;;26.08;17.88;;;;;;;26.36;60.52;99295.22;4946448;29;20035;-72
2023/06/21 06:55:04;;;;;;;26.95;16.60;;;;;;;26.36;60.82;99292.53;4945549;29;20055;-73
2023/06/21 06:57:30;;;;;;;25.55;16.50;;;;;;;26.35;60.71;99288.19;4947348;29;20062;-71
2023/06/21 06:59:55;;;;;;;28.50;15.13;;;;;;;26.36;60.64;99279.16;4943320;29;20034;-75
2023/06/21 07:02:20;;;;;;;19.58;11.73;;;;;;;26.37;60.37;99276.38;4936365;29;20503;-74
2023/06/21 07:04:46;;;;;;;14.00;9.57;;;;;;;26.38;60.30;99277.19;4936556;29;20032;-74
2023/06/21 07:07:11;;;;;;;14.90;8.75;;;;;;;26.39;60.45;99276.25;4936467;29;20102;-74
2023/06/21 07:09:37;;;;;;;16.20;9.10;;;;;;;26.39;60.04;99269.03;4936477;29;20043;-74
2023/06/21 07:12:03;;;;;;;13.45;8.65;;;;;;;26.41;60.60;99271.59;4936251;29;20027;-73
2023/06/21 07:14:29;;;;;;;13.20;7.78;;;;;;;26.41;60.46;99252.88;4936293;29;20019;-77
2023/06/21 07:16:54;;;;;;;14.10;6.72;;;;;;;26.38;60.63;99232.59;4936182;29;20024;-74
2023/06/21 07:19:20;;;;;;;10.50;6.55;;;;;;;26.36;60.86;99236.38;4936175;29;20024;-73
2023/06/21 07:21:45;;;;;;;13.35;5.88;;;;;;;26.38;60.73;99239.75;4936071;29;20038;-74
2023/06/21 07:24:12;;;;;;;14.93;7.07;;;;;;;26.39;60.24;99236.13;4936004;29;20027;-75
2023/06/21 07:26:38;;;;;;;11.77;6.25;;;;;;;26.40;60.38;99243.16;4934773;29;20035;-76
2023/06/21 07:29:04;;;;;;;13.88;7.03;;;;;;;26.41;60.71;99255.53;4935560;29;20087;-74
2023/06/21 07:31:32;;;;;;;11.63;6.88;;;;;;;26.40;60.41;99249.34;4936203;29;20064;-73
2023/06/21 07:33:57;;;;;;;11.23;5.75;;;;;;;26.41;60.45;99258.22;4935791;29;20027;-74
2023/06/21 07:36:23;;;;;;;10.85;6.20;;;;;;;26.43;60.47;99250.06;4934684;29;20118;-74
2023/06/21 07:38:49;;;;;;;12.93;6.38;;;;;;;26.43;60.14;99252.75;4935935;29;20024;-71
2023/06/21 07:41:15;;;;;;;11.32;6.38;;;;;;;26.44;60.44;99243.72;4935903;29;20461;-73
2023/06/21 07:43:40;;;;;;;11.52;6.30;;;;;;;26.42;60.21;99241.19;4935417;29;20035;-76
2023/06/21 07:46:06;;;;;;;12.07;6.45;;;;;;;26.44;60.32;99236.53;4935853;29;20417;-74
2023/06/21 07:48:33;;;;;;;11.55;6.72;;;;;;;26.44;60.22;99239.22;4935704;29;20087;-74
2023/06/21 07:50:59;;;;;;;11.50;6.55;;;;;;;26.45;60.26;99234.72;4935708;29;20404;-76
2023/06/21 07:53:24;;;;;;;13.52;6.75;;;;;;;26.44;60.56;99228.50;4935518;29;20108;-75
2023/06/21 07:55:50;;;;;;;11.82;6.80;;;;;;;26.46;60.51;99209.66;4935695;29;20028;-73
2023/06/21 07:58:15;;;;;;;13.00;7.13;;;;;;;26.44;60.56;99220.47;4935199;29;20231;-74
2023/06/21 08:00:41;;;;;;;10.82;5.80;;;;;;;26.43;60.31;99220.63;4934959;29;20074;-73
2023/06/21 08:03:06;;;;;;;11.77;6.45;;;;;;;26.43;60.25;99234.84;4935155;29;20031;-73
2023/06/21 08:05:31;;;;;;;13.85;7.07;;;;;;;26.43;60.53;99247.38;4935430;29;20023;-74
2023/06/21 08:08:01;;;;;;;12.35;6.70;;;;;;;26.42;60.52;99243.84;4935422;29;20508;-74
2023/06/21 08:10:27;;;;;;;11.80;6.38;;;;;;;26.40;60.58;99221.75;4935261;29;20043;-74
2023/06/21 08:12:52;;;;;;;11.20;6.35;;;;;;;26.39;60.40;99220.06;4934944;29;20075;-75
2023/06/21 08:15:17;;;;;;;13.48;6.22;;;;;;;26.41;60.71;99228.78;4934043;29;20062;-75
2023/06/21 08:17:43;;;;;;;8.18;5.75;;;;;;;26.40;60.38;99248.50;4935068;29;20035;-74
2023/06/21 08:20:09;;;;;;;12.30;6.53;;;;;;;26.39;60.46;99262.88;4935185;29;20035;-74
2023/06/21 08:22:34;;;;;;;12.85;6.10;;;;;;;26.37;60.53;99259.47;4935218;29;20505;-74
2023/06/21 08:25:00;;;;;;;11.73;5.85;;;;;;;26.36;60.68;99260.44;4935046;29;20046;-75
2023/06/21 08:27:26;;;;;;;11.75;5.88;;;;;;;26.37;60.38;99270.16;4934841;29;20051;-74
2023/06/21 08:29:51;;;;;;;10.02;6.03;;;;;;;26.37;60.28;99264.81;4935219;29;20131;-74
2023/06/21 08:32:18;;;;;;;11.98;5.97;;;;;;;26.36;60.37;99252.41;4934899;29;20484;-72
2023/06/21 08:34:43;;;;;;;10.15;5.50;;;;;;;26.36;60.48;99263.13;4934820;29;20510;-74
2023/06/21 08:37:09;;;;;;;10.23;5.75;;;;;;;26.35;60.32;99256.09;4934829;29;20114;-73
2023/06/21 08:39:34;;;;;;;9.90;5.15;;;;;;;26.36;60.30;99255.97;4934893;29;20034;-75
2023/06/21 08:42:00;;;;;;;9.02;5.47;;;;;;;26.37;60.46;99271.03;4934464;29;20027;-75
2023/06/21 08:44:25;;;;;;;9.27;6.00;;;;;;;26.38;60.13;99282.53;4933592;29;20266;-76
2023/06/21 08:46:51;;;;;;;8.70;5.35;;;;;;;26.38;60.22;99285.22;4934776;29;20043;-73
2023/06/21 08:49:18;;;;;;;8.95;5.28;;;;;;;26.39;59.94;99294.97;4934927;29;20447;-77
2023/06/21 08:51:46;;;;;;;8.30;5.25;;;;;;;26.40;59.90;99302.00;4934893;29;20024;-74
2023/06/21 08:54:13;;;;;;;11.55;5.75;;;;;;;26.40;60.04;99315.38;4934748;29;20504;-74
2023/06/21 08:57:14;;;;;;;11.35;5.80;;;;;;;26.41;60.08;99333.13;4934483;29;20028;-74
2023/06/21 08:59:51;;;;;;;10.73;5.43;;;;;;;26.41;59.95;99327.78;4930701;29;20039;-75
2023/06/21 09:02:31;;;;;;;8.50;5.13;;;;;;;26.39;59.83;99325.22;4934600;29;20049;-73
2023/06/21 09:04:59;;;;;;;7.82;4.93;;;;;;;26.40;59.90;99320.72;4934715;29;20031;-75
2023/06/21 09:07:26;;;;;;;8.95;5.50;;;;;;;26.40;59.78;99316.22;4934740;29;20031;-75
2023/06/21 09:09:54;;;;;;;9.45;5.43;;;;;;;26.40;59.83;99318.06;4934546;29;20023;-75
2023/06/21 09:12:19;;;;;;;10.38;5.30;;;;;;;26.39;59.79;99316.38;4937311;29;20031;-75
2023/06/21 09:14:46;;;;;;;10.13;5.60;;;;;;;26.41;59.52;99335.78;4938460;29;20031;-75
2023/06/21 09:17:13;;;;;;;7.43;5.18;;;;;;;26.40;59.92;99326.09;4938645;29;20023;-74
2023/06/21 09:19:39;;;;;;;8.10;5.15;;;;;;;26.40;59.84;99326.09;4938588;29;20121;-73
2023/06/21 09:22:05;;;;;;;8.50;5.30;;;;;;;26.40;59.76;99334.94;4938644;29;20028;-74
2023/06/21 09:24:31;;;;;;;11.63;5.47;;;;;;;26.39;60.13;99335.09;4938053;29;20452;-74
2023/06/21 09:26:56;;;;;;;8.25;5.82;;;;;;;26.40;59.60;99344.81;4937277;28;20090;-76
2023/06/21 09:29:22;;;;;;;8.98;5.53;;;;;;;26.38;59.56;99341.41;4936988;29;20051;-74
2023/06/21 09:31:47;;;;;;;9.55;5.30;;;;;;;26.38;59.74;99341.41;4938255;29;20039;-74
2023/06/21 09:34:13;;;;;;;8.63;5.90;;;;;;;26.39;59.67;99332.41;4938111;29;20032;-74
2023/06/21 09:36:40;;;;;;;10.18;4.93;;;;;;;26.38;59.75;99336.03;4938470;29;20036;-75
2023/06/21 09:39:10;;;;;;;9.88;5.57;;;;;;;26.38;59.92;99336.03;4938107;29;20051;-74
2023/06/21 09:41:36;;;;;;;10.50;6.13;;;;;;;26.39;60.16;99332.41;4937691;29;20019;-74
2023/06/21 09:44:02;;;;;;;9.73;6.25;;;;;;;26.40;60.75;99328.75;4934654;29;20082;-73
2023/06/21 09:46:28;;;;;;;8.50;6.10;;;;;;;26.43;60.91;99323.13;4947055;29;20444;-72
2023/06/21 09:48:54;;;;;;;10.77;6.35;;;;;;;26.41;60.96;99325.09;4956226;29;20031;-74
2023/06/21 09:51:23;;;;;;;10.40;7.10;;;;;;;26.40;61.32;99334.09;4953251;29;20094;-72
2023/06/21 09:53:50;;;;;;;12.63;7.80;;;;;;;26.40;61.29;99326.09;4941276;29;20024;-72
2023/06/21 09:56:19;;;;;;;12.15;7.10;;;;;;;26.39;61.69;99332.41;4937633;29;20106;-73
2023/06/21 09:58:47;;;;;;;11.48;7.25;;;;;;;26.40;61.69;99323.41;4937131;29;20050;-72
2023/06/21 10:01:15;;;;;;;13.02;6.90;;;;;;;26.40;61.78;99323.41;4938603;29;20624;-73
2023/06/21 10:03:45;;;;;;;14.18;7.65;;;;;;;26.41;61.62;99319.75;4948678;29;20039;-72
2023/06/21 10:06:16;;;;;;;14.60;7.10;;;;;;;26.39;61.74;99313.69;4956406;29;20448;-73
2023/06/21 10:08:42;;;;;;;10.60;6.60;;;;;;;26.41;62.02;99319.75;4956138;29;20031;-73
2023/06/21 10:11:08;;;;;;;11.68;7.13;;;;;;;26.40;61.75;99313.53;4954155;29;20104;-73
2023/06/21 10:13:37;;;;;;;16.85;7.47;;;;;;;26.40;61.60;99302.00;4936825;29;20047;-75
2023/06/21 10:16:03;;;;;;;12.57;6.90;;;;;;;26.44;61.33;99302.59;4936707;29;20509;-73
2023/06/21 10:18:29;;;;;;;13.43;6.63;;;;;;;26.42;61.85;99305.38;4939512;29;20117;-74
2023/06/21 10:21:09;;;;;;;12.13;6.43;;;;;;;26.43;61.92;99306.25;4941748;29;20039;-72
2023/06/21 10:23:41;;;;;;;14.35;7.35;;;;;;;26.40;61.97;99310.03;4942151;29;20566;-73
2023/06/21 10:26:12;;;;;;;15.13;7.65;;;;;;;26.41;61.79;99314.41;4945074;29;20039;-74
2023/06/21 10:28:41;;;;;;;10.68;6.47;;;;;;;26.43;61.50;99307.06;4936564;29;20035;-72
2023/06/21 10:31:11;;;;;;;12.20;7.13;;;;;;;26.40;62.28;99313.53;4936694;29;20404;-74
2023/06/21 10:33:38;;;;;;;11.18;6.82;;;;;;;26.43;61.53;99307.06;4936407;29;20078;-73
2023/06/21 10:36:06;;;;;;;13.18;6.32;;;;;;;26.41;62.35;99303.69;4936193;29;20035;-72
2023/06/21 10:38:41;;;;;;;10.43;6.95;;;;;;;26.42;61.80;99299.19;4919105;29;20524;-73
2023/06/21 10:41:08;;;;;;;12.35;7.30;;;;;;;26.41;61.94;99303.69;4936680;29;20032;-72
2023/06/21 10:43:34;;;;;;;15.18;6.63;;;;;;;26.42;61.74;99302.72;4936761;29;20118;-74
2023/06/21 10:46:00;;;;;;;12.00;7.03;;;;;;;26.42;62.02;99305.38;4936560;29;20034;-73
2023/06/21 10:48:26;;;;;;;14.45;6.88;;;;;;;26.45;61.52;99297.09;4936451;29;20027;-73
2023/06/21 10:50:52;;;;;;;10.43;6.30;;;;;;;26.44;61.77;99298.06;4936345;29;20052;-73
2023/06/21 10:53:19;;;;;;;12.55;7.80;;;;;;;26.43;62.02;99288.34;4936172;29;20079;-75
2023/06/21 10:55:46;;;;;;;12.73;6.90;;;;;;;26.41;62.23;99293.00;4936335;29;20140;-75
2023/06/21 10:58:13;;;;;;;13.20;7.38;;;;;;;26.42;61.92;99297.34;4936102;29;20097;-73
2023/06/21 11:00:39;;;;;;;12.73;6.70;;;;;;;26.40;62.07;99280.59;4937087;29;20028;-73
2023/06/21 11:03:04;;;;;;;13.00;7.20;;;;;;;26.42;61.85;99288.50;4941931;29;20502;-74
2023/06/21 11:05:30;;;;;;;14.98;7.80;;;;;;;26.39;62.55;99282.41;4942783;29;20068;-73
2023/06/21 11:08:01;;;;;;;12.05;7.60;;;;;;;26.41;62.13;99271.59;4944015;29;20023;-72
2023/06/21 11:10:43;;;;;;;11.95;7.13;;;;;;;26.39;62.10;99273.56;4943071;29;20608;-73
2023/06/21 11:13:10;;;;;;;11.15;6.75;;;;;;;26.36;62.45;99268.47;4927411;29;20073;-73
2023/06/21 11:15:40;;;;;;;11.60;7.30;;;;;;;26.39;61.93;99270.88;4935810;29;20036;-74
2023/06/21 11:18:08;;;;;;;10.23;6.57;;;;;;;26.40;62.36;99272.59;4936290;29;20034;-74
2023/06/21 11:20:50;;;;;;;13.40;7.63;;;;;;;26.39;62.48;99274.41;4936070;29;20444;-72
2023/06/21 11:23:17;;;;;;;13.65;7.30;;;;;;;26.41;62.09;99282.28;4937560;29;20082;-73
2023/06/21 11:26:12;;;;;;;13.38;7.60;;;;;;;26.42;62.14;99294.69;4944269;29;20038;-74
2023/06/21 11:28:44;;;;;;;10.40;6.32;;;;;;;26.42;62.53;99302.72;4933702;29;20131;-73